createdAt,value
2019-05-12T00:00:43.674Z,8.88
2019-05-12T00:01:43.697Z,8.87
2019-05-12T00:02:43.703Z,8.81
2019-05-12T00:03:43.745Z,8.94
2019-05-12T00:04:43.740Z,8.78
2019-05-12T00:05:43.747Z,8.79
2019-05-12T00:06:43.771Z,8.82
2019-05-12T00:07:43.781Z,8.85
2019-05-12T00:08:43.793Z,8.84
2019-05-12T00:09:43.806Z,8.82
2019-05-12T00:10:43.823Z,8.84
2019-05-12T00:11:43.844Z,8.84
2019-05-12T00:12:43.853Z,8.91
2019-05-12T00:13:43.871Z,8.78
2019-05-12T00:14:43.885Z,8.71
2019-05-12T00:15:43.899Z,8.67
2019-05-12T00:16:43.918Z,8.69
2019-05-12T00:17:44.069Z,8.61
2019-05-12T00:18:43.945Z,8.41
2019-05-12T00:19:43.965Z,8.26
2019-05-12T00:20:43.976Z,8.15
2019-05-12T00:21:43.990Z,8.12
2019-05-12T00:22:44.006Z,8.15
2019-05-12T00:23:44.027Z,8.15
2019-05-12T00:24:44.043Z,8.19
2019-05-12T00:25:44.050Z,8.10
2019-05-12T00:26:44.066Z,8.10
2019-05-12T00:27:44.081Z,8.06
2019-05-12T00:28:44.097Z,8.08
2019-05-12T00:29:44.112Z,8.00
2019-05-12T00:30:44.127Z,7.97
2019-05-12T00:31:44.147Z,7.91
2019-05-12T00:32:44.162Z,7.91
2019-05-12T00:33:44.169Z,7.90
2019-05-12T00:34:44.188Z,7.94
2019-05-12T00:35:44.202Z,7.90
2019-05-12T00:36:44.220Z,7.91
2019-05-12T00:37:44.242Z,7.90
2019-05-12T00:38:44.263Z,7.79
2019-05-12T00:39:44.298Z,7.63
2019-05-12T00:40:44.291Z,7.79
2019-05-12T00:41:44.666Z,7.77
2019-05-12T00:42:44.309Z,7.66
2019-05-12T00:43:44.444Z,7.47
2019-05-12T00:44:44.337Z,7.60
2019-05-12T00:45:44.350Z,7.70
2019-05-12T00:46:44.367Z,7.56
2019-05-12T00:47:44.380Z,7.53
2019-05-12T00:48:44.401Z,7.57
2019-05-12T00:49:44.410Z,7.47
2019-05-12T00:50:44.424Z,7.47
2019-05-12T00:51:44.449Z,7.36
2019-05-12T00:52:44.456Z,7.38
2019-05-12T00:53:44.470Z,7.39
2019-05-12T00:54:44.485Z,7.35
2019-05-12T00:55:44.502Z,7.35
2019-05-12T00:56:44.519Z,7.45
2019-05-12T00:57:44.530Z,7.39
2019-05-12T00:58:44.541Z,7.20
2019-05-12T00:59:44.560Z,7.18
2019-05-12T01:00:44.579Z,7.28
2019-05-12T01:01:44.590Z,7.15
2019-05-12T01:02:44.602Z,7.07
2019-05-12T01:03:44.614Z,7.07
2019-05-12T01:04:44.636Z,6.70
2019-05-12T01:05:44.655Z,6.72
2019-05-12T01:06:44.660Z,6.52
2019-05-12T01:07:44.674Z,6.52
2019-05-12T01:08:44.703Z,6.39
2019-05-12T01:09:44.710Z,6.36
2019-05-12T01:10:44.725Z,6.28
2019-05-12T01:11:44.745Z,6.14
2019-05-12T01:12:44.763Z,6.27
2019-05-12T01:13:44.769Z,6.04
2019-05-12T01:14:44.779Z,6.01
2019-05-12T01:15:44.792Z,6.01
2019-05-12T01:16:44.809Z,5.98
2019-05-12T01:17:44.831Z,6.20
2019-05-12T01:18:44.879Z,6.20
2019-05-12T01:19:44.849Z,6.35
2019-05-12T01:20:44.871Z,6.31
2019-05-12T01:21:44.881Z,6.31
2019-05-12T01:22:44.893Z,6.22
2019-05-12T01:23:56.395Z,6.27
2019-05-12T01:24:44.927Z,6.33
2019-05-12T01:25:44.937Z,6.35
2019-05-12T01:26:44.952Z,6.42
2019-05-12T01:27:44.965Z,6.41
2019-05-12T01:28:44.985Z,6.44
2019-05-12T01:29:44.995Z,6.31
2019-05-12T01:30:45.015Z,6.41
2019-05-12T01:31:45.023Z,6.42
2019-05-12T01:32:45.050Z,6.39
2019-05-12T01:33:45.056Z,6.31
2019-05-12T01:34:45.067Z,6.30
2019-05-12T01:35:45.083Z,6.31
2019-05-12T01:36:45.099Z,6.36
2019-05-12T01:37:45.112Z,6.52
2019-05-12T01:38:45.133Z,6.45
2019-05-12T01:39:45.145Z,6.54
2019-05-12T01:40:45.154Z,6.49
2019-05-12T01:41:45.169Z,6.59
2019-05-12T01:42:45.182Z,6.62
2019-05-12T01:43:45.211Z,6.57
2019-05-12T01:44:45.215Z,6.59
2019-05-12T01:45:45.241Z,6.59
2019-05-12T01:46:45.248Z,6.67
2019-05-12T01:47:45.259Z,6.69
2019-05-12T01:48:45.272Z,6.81
2019-05-12T01:49:45.287Z,6.88
2019-05-12T01:50:47.448Z,6.88
2019-05-12T01:51:47.540Z,6.75
2019-05-12T01:52:47.701Z,6.77
2019-05-12T01:53:45.347Z,6.81
2019-05-12T01:54:45.369Z,6.84
2019-05-12T01:55:45.376Z,6.92
2019-05-12T01:56:45.388Z,6.99
2019-05-12T01:57:45.410Z,6.96
2019-05-12T01:58:45.418Z,7.18
2019-05-12T01:59:45.436Z,7.11
2019-05-12T02:00:45.445Z,7.15
2019-05-12T02:01:45.470Z,7.13
2019-05-12T02:02:47.895Z,7.10
2019-05-12T02:03:45.491Z,7.11
2019-05-12T02:04:45.512Z,7.21
2019-05-12T02:05:45.526Z,7.15
2019-05-12T02:06:45.537Z,7.18
2019-05-12T02:07:47.816Z,7.32
2019-05-12T02:08:47.654Z,7.29
2019-05-12T02:09:48.007Z,7.23
2019-05-12T02:10:47.978Z,7.29
2019-05-12T02:11:45.613Z,7.25
2019-05-12T02:12:45.628Z,7.21
2019-05-12T02:13:45.638Z,7.36
2019-05-12T02:14:45.650Z,7.36
2019-05-12T02:15:45.667Z,7.32
2019-05-12T02:16:47.601Z,7.40
2019-05-12T02:17:47.972Z,7.35
2019-05-12T02:18:45.711Z,7.43
2019-05-12T02:19:47.991Z,7.48
2019-05-12T02:20:45.739Z,7.51
2019-05-12T02:21:45.753Z,7.66
2019-05-12T02:22:47.781Z,7.67
2019-05-12T02:23:47.668Z,7.58
2019-05-12T02:24:47.770Z,7.60
2019-05-12T02:25:48.136Z,7.60
2019-05-12T02:26:45.830Z,7.73
2019-05-12T02:27:47.623Z,7.80
2019-05-12T02:28:47.905Z,7.67
2019-05-12T02:29:48.038Z,7.72
2019-05-12T02:30:45.887Z,7.83
2019-05-12T02:31:45.923Z,7.85
2019-05-12T02:32:52.478Z,7.93
2019-05-12T02:33:45.936Z,7.95
2019-05-12T02:34:45.951Z,8.03
2019-05-12T02:35:45.963Z,8.09
2019-05-12T02:36:45.994Z,8.03
2019-05-12T02:37:45.994Z,8.03
2019-05-12T02:38:46.006Z,8.01
2019-05-12T02:39:46.020Z,7.97
2019-05-12T02:40:46.038Z,8.09
2019-05-12T02:41:46.057Z,8.15
2019-05-12T02:42:46.672Z,8.20
2019-05-12T02:43:46.176Z,8.18
2019-05-12T02:44:46.107Z,8.23
2019-05-12T02:45:46.113Z,8.27
2019-05-12T02:46:46.132Z,8.36
2019-05-12T02:47:46.140Z,8.45
2019-05-12T02:48:46.162Z,8.42
2019-05-12T02:49:46.185Z,8.37
2019-05-12T02:50:46.196Z,8.41
2019-05-12T02:51:46.203Z,8.46
2019-05-12T02:52:46.222Z,8.51
2019-05-12T02:53:47.279Z,8.37
2019-05-12T02:54:55.279Z,8.37
2019-05-12T02:55:46.270Z,8.36
2019-05-12T02:56:46.285Z,8.41
2019-05-12T02:57:46.295Z,8.45
2019-05-12T02:58:46.304Z,8.48
2019-05-12T02:59:46.325Z,8.48
2019-05-12T03:00:46.342Z,8.45
2019-05-12T03:01:46.357Z,8.64
2019-05-12T03:02:46.369Z,8.60
2019-05-12T03:03:46.383Z,8.56
2019-05-12T03:04:46.398Z,8.51
2019-05-12T03:05:46.418Z,8.55
2019-05-12T03:06:46.428Z,8.64
2019-05-12T03:07:46.447Z,8.61
2019-05-12T03:08:46.466Z,8.67
2019-05-12T03:09:46.474Z,8.74
2019-05-12T03:10:46.490Z,8.71
2019-05-12T03:11:46.506Z,8.88
2019-05-12T03:12:46.526Z,8.78
2019-05-12T03:13:46.535Z,8.82
2019-05-12T03:14:46.552Z,8.82
2019-05-12T03:15:46.563Z,8.71
2019-05-12T03:16:46.581Z,8.73
2019-05-12T03:17:46.594Z,8.89
2019-05-12T03:18:46.613Z,8.85
2019-05-12T03:19:46.631Z,8.79
2019-05-12T03:20:46.652Z,8.73
2019-05-12T03:21:46.657Z,8.74
2019-05-12T03:22:46.674Z,8.79
2019-05-12T03:23:46.688Z,8.87
2019-05-12T03:25:05.942Z,8.78
2019-05-12T03:25:46.725Z,8.85
2019-05-12T03:26:46.734Z,8.71
2019-05-12T03:27:46.759Z,8.74
2019-05-12T03:28:46.761Z,8.76
2019-05-12T03:29:46.772Z,8.73
2019-05-12T03:30:48.847Z,8.66
2019-05-12T03:31:48.796Z,8.60
2019-05-12T03:32:47.839Z,8.53
2019-05-12T03:33:52.915Z,8.52
2019-05-12T03:34:47.784Z,8.53
2019-05-12T03:35:53.035Z,8.48
2019-05-12T03:36:51.324Z,8.48
2019-05-12T03:37:47.089Z,8.44
2019-05-12T03:38:46.983Z,8.37
2019-05-12T03:39:46.956Z,8.58
2019-05-12T03:40:46.948Z,8.55
2019-05-12T03:41:46.955Z,8.51
2019-05-12T03:42:46.973Z,8.55
2019-05-12T03:43:47.009Z,8.61
2019-05-12T03:44:47.004Z,8.51
2019-05-12T03:45:47.021Z,8.46
2019-05-12T03:46:47.037Z,8.36
2019-05-12T03:47:47.051Z,8.42
2019-05-12T03:48:47.065Z,8.41
2019-05-12T03:49:47.136Z,8.42
2019-05-12T03:50:47.100Z,8.49
2019-05-12T03:51:47.107Z,8.42
2019-05-12T03:52:47.124Z,8.45
2019-05-12T03:53:47.182Z,8.45
2019-05-12T03:54:47.155Z,8.48
2019-05-12T03:55:47.479Z,8.55
2019-05-12T03:56:47.183Z,8.44
2019-05-12T03:57:47.202Z,8.45
2019-05-12T03:58:47.225Z,8.49
2019-05-12T03:59:47.233Z,8.48
2019-05-12T04:00:47.255Z,8.38
2019-05-12T04:01:47.263Z,8.44
2019-05-12T04:02:47.277Z,8.45
2019-05-12T04:03:47.293Z,8.44
2019-05-12T04:04:47.314Z,8.36
2019-05-12T04:05:47.323Z,8.38
2019-05-12T04:06:47.344Z,8.38
2019-05-12T04:07:47.354Z,8.48
2019-05-12T04:08:47.368Z,8.45
2019-05-12T04:09:47.384Z,8.41
2019-05-12T04:10:47.397Z,8.48
2019-05-12T04:11:47.417Z,8.38
2019-05-12T04:12:47.435Z,8.51
2019-05-12T04:13:47.444Z,8.38
2019-05-12T04:14:47.464Z,8.42
2019-05-12T04:15:47.479Z,8.36
2019-05-12T04:16:47.496Z,8.18
2019-05-12T04:17:47.510Z,8.41
2019-05-12T04:18:47.522Z,8.45
2019-05-12T04:19:47.536Z,8.27
2019-05-12T04:20:47.552Z,8.37
2019-05-12T04:21:47.574Z,8.42
2019-05-12T04:22:47.577Z,8.48
2019-05-12T04:23:47.599Z,8.30
2019-05-12T04:24:47.611Z,8.37
2019-05-12T04:25:52.887Z,8.48
2019-05-12T04:26:47.639Z,8.56
2019-05-12T04:27:47.659Z,8.63
2019-05-12T04:28:47.677Z,8.60
2019-05-12T04:29:47.688Z,8.53
2019-05-12T04:30:47.751Z,8.51
2019-05-12T04:31:47.722Z,8.53
2019-05-12T04:32:47.735Z,8.46
2019-05-12T04:33:47.755Z,8.63
2019-05-12T04:34:47.763Z,8.70
2019-05-12T04:35:47.786Z,8.70
2019-05-12T04:36:47.794Z,8.69
2019-05-12T04:37:47.810Z,8.74
2019-05-12T04:38:47.828Z,8.69
2019-05-12T04:39:47.875Z,8.42
2019-05-12T04:40:47.856Z,8.37
2019-05-12T04:41:47.894Z,8.38
2019-05-12T04:42:47.900Z,8.55
2019-05-12T04:43:47.909Z,8.53
2019-05-12T04:44:47.930Z,8.46
2019-05-12T04:45:47.953Z,8.55
2019-05-12T04:46:47.946Z,8.73
2019-05-12T04:47:47.962Z,8.73
2019-05-12T04:48:47.981Z,8.82
2019-05-12T04:49:47.993Z,8.89
2019-05-12T04:50:48.028Z,8.99
2019-05-12T04:51:48.030Z,9.02
2019-05-12T04:52:48.035Z,8.92
2019-05-12T04:53:48.066Z,9.43
2019-05-12T04:54:48.078Z,9.62
2019-05-12T04:56:06.274Z,9.54
2019-05-12T04:56:48.113Z,9.51
2019-05-12T04:57:48.120Z,9.50
2019-05-12T04:58:48.138Z,9.64
2019-05-12T04:59:48.149Z,9.74
2019-05-12T05:00:48.165Z,9.56
2019-05-12T05:01:48.181Z,9.82
2019-05-12T05:02:48.195Z,9.76
2019-05-12T05:03:48.218Z,9.94
2019-05-12T05:04:48.224Z,9.94
2019-05-12T05:05:48.238Z,10.34
2019-05-12T05:06:48.259Z,10.67
2019-05-12T05:07:48.275Z,10.69
2019-05-12T05:08:48.303Z,10.67
2019-05-12T05:09:48.305Z,10.64
2019-05-12T05:10:48.322Z,10.69
2019-05-12T05:11:48.344Z,10.51
2019-05-12T05:12:48.356Z,10.61
2019-05-12T05:13:48.369Z,10.59
2019-05-12T05:14:48.385Z,10.54
2019-05-12T05:15:48.403Z,10.69
2019-05-12T05:16:48.422Z,10.75
2019-05-12T05:17:48.435Z,10.53
2019-05-12T05:18:48.452Z,9.80
2019-05-12T05:19:48.464Z,10.01
2019-05-12T05:20:48.481Z,10.16
2019-05-12T05:21:48.501Z,10.31
2019-05-12T05:22:48.509Z,10.34
2019-05-12T05:23:48.528Z,10.30
2019-05-12T05:24:48.546Z,10.26
2019-05-12T05:25:48.566Z,10.34
2019-05-12T05:26:48.580Z,10.60
2019-05-12T05:27:48.595Z,10.78
2019-05-12T05:28:48.614Z,10.89
2019-05-12T05:29:48.631Z,11.11
2019-05-12T05:30:48.643Z,11.35
2019-05-12T05:31:48.660Z,11.50
2019-05-12T05:32:48.670Z,11.97
2019-05-12T05:33:48.698Z,11.63
2019-05-12T05:34:53.689Z,11.33
2019-05-12T05:35:48.723Z,11.40
2019-05-12T05:36:51.092Z,11.36
2019-05-12T05:37:48.771Z,11.44
2019-05-12T05:38:51.172Z,11.47
2019-05-12T05:39:49.797Z,11.36
2019-05-12T05:40:48.821Z,11.94
2019-05-12T05:41:50.935Z,12.04
2019-05-12T05:42:48.846Z,11.94
2019-05-12T05:43:54.258Z,12.12
2019-05-12T05:44:48.872Z,12.18
2019-05-12T05:45:48.897Z,12.31
2019-05-12T05:46:50.298Z,12.17
2019-05-12T05:47:49.179Z,12.31
2019-05-12T05:48:48.941Z,12.18
2019-05-12T05:49:48.958Z,12.36
2019-05-12T05:50:48.980Z,12.02
2019-05-12T05:51:54.339Z,12.22
2019-05-12T05:52:49.013Z,12.25
2019-05-12T05:53:50.178Z,12.58
2019-05-12T05:54:49.047Z,12.45
2019-05-12T05:55:50.409Z,12.04
2019-05-12T05:56:58.440Z,12.10
2019-05-12T05:57:49.097Z,12.42
2019-05-12T05:58:51.914Z,12.42
2019-05-12T05:59:49.133Z,12.91
2019-05-12T06:00:54.816Z,13.41
2019-05-12T06:01:51.949Z,14.07
2019-05-12T06:02:49.192Z,14.05
2019-05-12T06:03:49.199Z,14.26
2019-05-12T06:04:49.898Z,14.03
2019-05-12T06:05:49.240Z,14.03
2019-05-12T06:06:52.796Z,14.05
2019-05-12T06:07:49.267Z,13.99
2019-05-12T06:08:49.294Z,14.25
2019-05-12T06:09:49.313Z,14.15
2019-05-12T06:10:49.339Z,14.26
2019-05-12T06:11:49.344Z,14.50
2019-05-12T06:12:50.945Z,14.94
2019-05-12T06:13:49.385Z,14.99
2019-05-12T06:14:55.207Z,14.92
2019-05-12T06:15:49.418Z,14.77
2019-05-12T06:16:49.435Z,14.28
2019-05-12T06:17:49.453Z,13.95
2019-05-12T06:18:49.470Z,13.59
2019-05-12T06:19:49.482Z,13.50
2019-05-12T06:20:49.509Z,13.62
2019-05-12T06:21:49.525Z,13.83
2019-05-12T06:22:54.570Z,13.75
2019-05-12T06:23:49.558Z,13.81
2019-05-12T06:24:54.859Z,13.35
2019-05-12T06:25:51.609Z,13.25
2019-05-12T06:26:57.657Z,13.11
2019-05-12T06:27:51.130Z,12.95
2019-05-12T06:28:49.656Z,13.13
2019-05-12T06:29:54.447Z,13.22
2019-05-12T06:30:50.356Z,13.38
2019-05-12T06:31:49.717Z,13.37
2019-05-12T06:32:51.804Z,13.52
2019-05-12T06:33:49.746Z,13.62
2019-05-12T06:34:50.833Z,13.46
2019-05-12T06:35:49.784Z,13.67
2019-05-12T06:36:49.796Z,13.46
2019-05-12T06:37:57.762Z,13.47
2019-05-12T06:38:49.851Z,13.62
2019-05-12T06:39:51.021Z,13.96
2019-05-12T06:40:49.892Z,14.15
2019-05-12T06:41:49.877Z,14.26
2019-05-12T06:42:53.971Z,14.47
2019-05-12T06:43:49.945Z,14.45
2019-05-12T06:44:54.893Z,14.36
2019-05-12T06:45:49.967Z,13.81
2019-05-12T06:46:53.574Z,13.41
2019-05-12T06:47:51.733Z,13.56
2019-05-12T06:48:50.022Z,13.37
2019-05-12T06:49:56.458Z,13.33
2019-05-12T06:50:50.065Z,13.35
2019-05-12T06:51:53.783Z,13.46
2019-05-12T06:52:50.076Z,13.49
2019-05-12T06:53:50.091Z,13.74
2019-05-12T06:54:56.425Z,13.27
2019-05-12T06:55:50.125Z,13.31
2019-05-12T06:56:55.291Z,14.17
2019-05-12T06:57:50.406Z,14.03
2019-05-12T06:58:50.182Z,14.11
2019-05-12T06:59:51.425Z,14.03
2019-05-12T07:00:50.224Z,13.81
2019-05-12T07:01:54.966Z,13.85
2019-05-12T07:02:54.739Z,14.07
2019-05-12T07:03:50.271Z,14.99
2019-05-12T07:04:56.616Z,15.17
2019-05-12T07:05:50.303Z,14.62
2019-05-12T07:06:56.160Z,14.10
2019-05-12T07:07:50.340Z,15.00
2019-05-12T07:09:02.285Z,14.91
2019-05-12T07:09:53.747Z,14.70
2019-05-12T07:10:59.782Z,14.62
2019-05-12T07:12:01.765Z,15.28
2019-05-12T07:12:58.825Z,15.68
2019-05-12T07:14:01.292Z,15.40
2019-05-12T07:14:55.626Z,15.55
2019-05-12T07:15:50.485Z,15.33
2019-05-12T07:16:55.055Z,15.14
2019-05-12T07:17:50.519Z,14.51
2019-05-12T07:18:50.542Z,14.35
2019-05-12T07:19:56.354Z,14.43
2019-05-12T07:20:50.584Z,14.69
2019-05-12T07:21:55.405Z,14.78
2019-05-12T07:22:50.613Z,14.77
2019-05-12T07:23:50.629Z,14.78
2019-05-12T07:24:52.803Z,15.61
2019-05-12T07:25:50.660Z,16.10
2019-05-12T07:26:56.320Z,15.76
2019-05-12T07:27:54.905Z,15.86
2019-05-12T07:28:50.742Z,16.28
2019-05-12T07:29:50.742Z,16.23
2019-05-12T07:30:50.753Z,16.33
2019-05-12T07:31:50.780Z,16.13
2019-05-12T07:32:51.233Z,15.46
2019-05-12T07:33:54.006Z,15.27
2019-05-12T07:34:50.831Z,15.25
2019-05-12T07:35:53.465Z,15.11
2019-05-12T07:36:50.873Z,14.85
2019-05-12T07:37:50.891Z,14.62
2019-05-12T07:38:55.853Z,14.25
2019-05-12T07:39:50.927Z,14.14
2019-05-12T07:40:51.027Z,13.93
2019-05-12T07:41:52.164Z,14.40
2019-05-12T07:42:50.999Z,14.36
2019-05-12T07:43:56.693Z,14.08
2019-05-12T07:44:51.021Z,13.99
2019-05-12T07:45:53.938Z,14.18
2019-05-12T07:46:51.068Z,14.88
2019-05-12T07:47:51.075Z,15.92
2019-05-12T07:48:51.105Z,16.35
2019-05-12T07:49:53.610Z,16.58
2019-05-12T07:50:56.458Z,16.47
2019-05-12T07:51:51.215Z,15.43
2019-05-12T07:52:51.223Z,15.07
2019-05-12T07:53:55.390Z,15.33
2019-05-12T07:54:53.713Z,16.43
2019-05-12T07:55:53.180Z,17.15
2019-05-12T07:56:53.805Z,17.09
2019-05-12T07:57:57.896Z,17.51
2019-05-12T07:58:56.496Z,17.41
2019-05-12T07:59:51.300Z,17.02
2019-05-12T08:00:53.944Z,18.08
2019-05-12T08:01:54.332Z,17.33
2019-05-12T08:02:53.557Z,17.59
2019-05-12T08:03:57.329Z,17.20
2019-05-12T08:04:51.399Z,17.16
2019-05-12T08:05:56.343Z,15.90
2019-05-12T08:06:53.688Z,16.42
2019-05-12T08:07:53.452Z,17.30
2019-05-12T08:08:58.147Z,17.51
2019-05-12T08:09:53.545Z,18.19
2019-05-12T08:10:55.661Z,17.94
2019-05-12T08:11:53.909Z,17.51
2019-05-12T08:12:59.566Z,17.30
2019-05-12T08:13:54.103Z,16.71
2019-05-12T08:14:51.604Z,17.14
2019-05-12T08:15:55.604Z,17.48
2019-05-12T08:16:54.112Z,17.30
2019-05-12T08:17:55.306Z,17.01
2019-05-12T08:18:53.491Z,17.48
2019-05-12T08:19:53.618Z,18.37
2019-05-12T08:20:53.779Z,17.94
2019-05-12T08:21:53.613Z,18.04
2019-05-12T08:22:54.014Z,18.66
2019-05-12T08:23:53.450Z,18.26
2019-05-12T08:24:53.776Z,17.79
2019-05-12T08:25:53.838Z,17.04
2019-05-12T08:26:59.706Z,16.47
2019-05-12T08:27:59.380Z,16.41
2019-05-12T08:28:53.541Z,16.15
2019-05-12T08:30:00.834Z,15.73
2019-05-12T08:30:52.708Z,15.37
2019-05-12T08:31:54.617Z,15.22
2019-05-12T08:32:56.344Z,14.85
2019-05-12T08:33:53.787Z,14.86
2019-05-12T08:34:54.134Z,14.97
2019-05-12T08:35:52.020Z,15.65
2019-05-12T08:36:56.725Z,15.80
2019-05-12T08:37:54.332Z,15.68
2019-05-12T08:38:53.634Z,15.31
2019-05-12T08:40:02.174Z,15.18
2019-05-12T08:40:54.205Z,15.75
2019-05-12T08:41:53.483Z,15.80
2019-05-12T08:42:53.993Z,16.28
2019-05-12T08:43:57.884Z,16.42
2019-05-12T08:44:54.117Z,15.92
2019-05-12T08:45:53.596Z,16.15
2019-05-12T08:46:56.358Z,16.46
2019-05-12T08:47:54.154Z,16.21
2019-05-12T08:48:57.840Z,15.92
2019-05-12T08:49:58.292Z,15.58
2019-05-12T08:50:54.532Z,15.59
2019-05-12T08:51:55.754Z,16.41
2019-05-12T08:52:53.838Z,16.31
2019-05-12T08:53:53.921Z,16.38
2019-05-12T08:54:53.658Z,16.16
2019-05-12T08:55:53.843Z,15.79
2019-05-12T08:56:59.355Z,15.90
2019-05-12T08:57:54.192Z,16.09
2019-05-12T08:58:54.358Z,15.82
2019-05-12T08:59:54.596Z,15.83
2019-05-12T09:00:54.747Z,16.13
2019-05-12T09:01:54.018Z,15.98
2019-05-12T09:02:53.930Z,15.49
2019-05-12T09:03:53.349Z,15.57
2019-05-12T09:04:55.559Z,15.39
2019-05-12T09:05:53.688Z,15.90
2019-05-12T09:06:56.383Z,15.70
2019-05-12T09:07:54.072Z,15.83
2019-05-12T09:08:54.229Z,15.80
2019-05-12T09:09:53.343Z,15.86
2019-05-12T09:10:55.348Z,16.13
2019-05-12T09:11:54.213Z,16.23
2019-05-12T09:12:54.156Z,15.80
2019-05-12T09:14:00.196Z,16.23
2019-05-12T09:14:54.569Z,15.68
2019-05-12T09:15:54.139Z,15.95
2019-05-12T09:16:53.712Z,16.29
2019-05-12T09:17:56.878Z,16.16
2019-05-12T09:18:55.142Z,15.90
2019-05-12T09:19:54.986Z,16.20
2019-05-12T09:20:55.503Z,15.94
2019-05-12T09:21:54.217Z,16.12
2019-05-12T09:23:00.663Z,16.31
2019-05-12T09:23:55.854Z,16.33
2019-05-12T09:24:53.413Z,15.91
2019-05-12T09:25:53.721Z,16.15
2019-05-12T09:26:53.842Z,16.58
2019-05-12T09:27:54.241Z,16.72
2019-05-12T09:28:54.306Z,16.75
2019-05-12T09:29:53.995Z,16.84
2019-05-12T09:30:54.354Z,17.14
2019-05-12T09:31:53.222Z,17.31
2019-05-12T09:32:55.984Z,16.87
2019-05-12T09:33:54.708Z,17.24
2019-05-12T09:34:58.111Z,17.44
2019-05-12T09:35:54.043Z,17.39
2019-05-12T09:36:59.610Z,17.80
2019-05-12T09:37:53.594Z,18.00
2019-05-12T09:39:01.299Z,17.68
2019-05-12T09:39:53.846Z,17.39
2019-05-12T09:41:00.733Z,17.16
2019-05-12T09:41:55.292Z,17.26
2019-05-12T09:42:53.356Z,17.26
2019-05-12T09:43:53.507Z,17.27
2019-05-12T09:44:53.956Z,16.96
2019-05-12T09:45:56.474Z,16.74
2019-05-12T09:46:53.536Z,16.69
2019-05-12T09:47:53.990Z,16.72
2019-05-12T09:48:55.093Z,16.58
2019-05-12T09:49:53.620Z,16.31
2019-05-12T09:51:00.365Z,16.64
2019-05-12T09:51:54.385Z,16.23
2019-05-12T09:52:55.531Z,16.39
2019-05-12T09:53:55.501Z,16.50
2019-05-12T09:54:53.537Z,16.54
2019-05-12T09:55:53.904Z,16.01
2019-05-12T09:56:55.422Z,16.61
2019-05-12T09:57:54.394Z,16.75
2019-05-12T09:59:01.480Z,16.50
2019-05-12T09:59:58.262Z,16.61
2019-05-12T10:00:54.350Z,16.71
2019-05-12T10:01:54.184Z,16.74
2019-05-12T10:02:59.381Z,16.71
2019-05-12T10:03:54.427Z,16.28
2019-05-12T10:04:56.349Z,16.09
2019-05-12T10:05:53.666Z,16.29
2019-05-12T10:06:53.672Z,16.42
2019-05-12T10:07:53.706Z,16.65
2019-05-12T10:08:54.884Z,16.87
2019-05-12T10:09:55.032Z,16.74
2019-05-12T10:10:53.779Z,16.64
2019-05-12T10:12:00.309Z,16.81
2019-05-12T10:12:53.808Z,17.29
2019-05-12T10:13:54.352Z,16.91
2019-05-12T10:14:53.897Z,16.56
2019-05-12T10:15:58.683Z,16.36
2019-05-12T10:16:53.866Z,16.28
2019-05-12T10:17:54.058Z,16.01
2019-05-12T10:18:53.929Z,16.26
2019-05-12T10:19:57.864Z,16.20
2019-05-12T10:20:53.961Z,16.26
2019-05-12T10:21:55.183Z,16.72
2019-05-12T10:22:54.292Z,16.47
2019-05-12T10:24:00.647Z,16.35
2019-05-12T10:24:57.877Z,16.60
2019-05-12T10:25:54.028Z,16.90
2019-05-12T10:26:54.277Z,16.91
2019-05-12T10:27:54.091Z,16.68
2019-05-12T10:28:58.198Z,16.39
2019-05-12T10:29:54.272Z,16.43
2019-05-12T10:30:56.933Z,16.66
2019-05-12T10:31:54.143Z,17.05
2019-05-12T10:32:54.182Z,17.20
2019-05-12T10:33:57.158Z,17.12
2019-05-12T10:34:54.192Z,17.09
2019-05-12T10:35:54.293Z,17.42
2019-05-12T10:36:54.257Z,17.83
2019-05-12T10:37:54.255Z,17.68
2019-05-12T10:38:54.284Z,17.48
2019-05-12T10:39:54.291Z,17.15
2019-05-12T10:40:54.304Z,17.15
2019-05-12T10:41:54.815Z,16.76
2019-05-12T10:42:54.365Z,17.12
2019-05-12T10:43:57.807Z,16.74
2019-05-12T10:44:56.565Z,17.12
2019-05-12T10:45:54.438Z,17.38
2019-05-12T10:46:54.411Z,17.44
2019-05-12T10:47:54.458Z,17.70
2019-05-12T10:48:54.454Z,17.56
2019-05-12T10:49:54.485Z,17.52
2019-05-12T10:50:54.491Z,17.16
2019-05-12T10:51:54.511Z,16.89
2019-05-12T10:52:54.537Z,17.15
2019-05-12T10:53:57.404Z,16.99
2019-05-12T10:54:54.587Z,17.15
2019-05-12T10:55:54.596Z,17.04
2019-05-12T10:56:54.858Z,16.66
2019-05-12T10:58:01.586Z,17.11
2019-05-12T10:58:54.673Z,17.06
2019-05-12T10:59:54.661Z,16.61
2019-05-12T11:00:58.812Z,16.71
2019-05-12T11:01:54.691Z,16.89
2019-05-12T11:02:54.716Z,17.20
2019-05-12T11:03:54.757Z,17.24
2019-05-12T11:04:54.750Z,17.02
2019-05-12T11:06:02.332Z,17.38
2019-05-12T11:06:54.785Z,17.24
2019-05-12T11:07:54.834Z,16.93
2019-05-12T11:08:54.827Z,17.15
2019-05-12T11:09:54.842Z,16.84
2019-05-12T11:10:57.680Z,17.01
2019-05-12T11:11:54.895Z,17.24
2019-05-12T11:12:59.212Z,17.23
2019-05-12T11:13:54.972Z,17.01
2019-05-12T11:14:54.935Z,16.83
2019-05-12T11:15:54.950Z,16.65
2019-05-12T11:16:54.972Z,16.66
2019-05-12T11:17:54.993Z,16.50
2019-05-12T11:18:55.013Z,16.50
2019-05-12T11:19:55.030Z,16.79
2019-05-12T11:20:55.046Z,17.14
2019-05-12T11:21:55.085Z,17.33
2019-05-12T11:22:55.107Z,17.95
2019-05-12T11:23:55.100Z,17.79
2019-05-12T11:24:55.872Z,17.97
2019-05-12T11:25:55.168Z,18.00
2019-05-12T11:26:55.160Z,17.27
2019-05-12T11:27:55.174Z,17.05
2019-05-12T11:28:55.192Z,16.84
2019-05-12T11:29:55.235Z,16.61
2019-05-12T11:30:55.230Z,16.56
2019-05-12T11:31:55.250Z,16.79
2019-05-12T11:32:55.264Z,16.65
2019-05-12T11:33:55.284Z,16.66
2019-05-12T11:34:55.315Z,16.38
2019-05-12T11:35:55.324Z,16.51
2019-05-12T11:36:55.336Z,16.24
2019-05-12T11:37:55.365Z,16.33
2019-05-12T11:38:55.383Z,16.04
2019-05-12T11:39:55.394Z,16.04
2019-05-12T11:40:55.419Z,16.42
2019-05-12T11:41:55.533Z,16.43
2019-05-12T11:42:59.837Z,16.84
2019-05-12T11:43:55.498Z,17.15
2019-05-12T11:44:55.486Z,17.52
2019-05-12T11:45:55.510Z,17.76
2019-05-12T11:46:55.522Z,17.39
2019-05-12T11:47:59.122Z,17.22
2019-05-12T11:48:55.563Z,17.67
2019-05-12T11:49:58.541Z,18.00
2019-05-12T11:50:55.635Z,17.85
2019-05-12T11:51:55.647Z,17.64
2019-05-12T11:52:55.643Z,17.78
2019-05-12T11:53:55.654Z,17.95
2019-05-12T11:54:55.728Z,17.87
2019-05-12T11:55:55.747Z,17.76
2019-05-12T11:56:55.745Z,17.92
2019-05-12T11:58:00.459Z,17.71
2019-05-12T11:58:55.758Z,17.98
2019-05-12T12:00:02.011Z,18.11
2019-05-12T12:00:58.650Z,18.26
2019-05-12T12:01:56.167Z,18.15
2019-05-12T12:02:55.833Z,17.98
2019-05-12T12:03:55.849Z,18.04
2019-05-12T12:04:55.858Z,17.89
2019-05-12T12:05:55.932Z,17.41
2019-05-12T12:06:55.926Z,17.30
2019-05-12T12:07:56.194Z,16.86
2019-05-12T12:08:55.946Z,17.02
2019-05-12T12:09:59.484Z,17.01
2019-05-12T12:10:56.005Z,17.30
2019-05-12T12:12:02.476Z,17.98
2019-05-12T12:12:56.014Z,18.34
2019-05-12T12:14:00.415Z,18.29
2019-05-12T12:14:56.050Z,18.26
2019-05-12T12:16:00.385Z,18.58
2019-05-12T12:16:56.091Z,18.59
2019-05-12T12:17:56.143Z,18.73
2019-05-12T12:19:02.254Z,18.22
2019-05-12T12:19:56.174Z,17.36
2019-05-12T12:21:02.978Z,16.96
2019-05-12T12:21:56.192Z,16.78
2019-05-12T12:23:00.113Z,16.99
2019-05-12T12:23:56.226Z,16.91
2019-05-12T12:24:56.240Z,17.26
2019-05-12T12:25:56.283Z,17.24
2019-05-12T12:26:56.275Z,17.46
2019-05-12T12:27:56.296Z,17.90
2019-05-12T12:28:56.324Z,18.08
2019-05-12T12:29:56.358Z,18.20
2019-05-12T12:31:00.377Z,18.41
2019-05-12T12:31:56.397Z,18.47
2019-05-12T12:33:00.273Z,18.63
2019-05-12T12:33:56.408Z,18.83
2019-05-12T12:34:56.440Z,18.63
2019-05-12T12:36:00.567Z,18.52
2019-05-12T12:36:56.476Z,18.41
2019-05-12T12:37:56.497Z,18.10
2019-05-12T12:38:56.507Z,18.65
2019-05-12T12:39:56.554Z,18.78
2019-05-12T12:40:56.537Z,18.66
2019-05-12T12:42:00.403Z,18.71
2019-05-12T12:42:56.594Z,18.88
2019-05-12T12:43:56.621Z,18.04
2019-05-12T12:44:58.772Z,18.07
2019-05-12T12:45:56.653Z,18.43
2019-05-12T12:47:00.143Z,18.35
2019-05-12T12:47:56.678Z,18.35
2019-05-12T12:49:00.181Z,18.16
2019-05-12T12:49:56.708Z,18.38
2019-05-12T12:50:56.740Z,18.01
2019-05-12T12:51:56.772Z,18.05
2019-05-12T12:52:56.766Z,18.07
2019-05-12T12:53:56.783Z,18.15
2019-05-12T12:54:59.454Z,18.34
2019-05-12T12:55:58.795Z,18.44
2019-05-12T12:57:00.120Z,18.04
2019-05-12T12:57:56.894Z,18.26
2019-05-12T12:59:01.816Z,18.58
2019-05-12T12:59:56.910Z,18.47
2019-05-12T13:00:57.214Z,18.84
2019-05-12T13:01:59.201Z,19.14
2019-05-12T13:02:56.983Z,18.96